createdAt,value
2023-01-26T00:01:29.250Z,1.50
2023-01-26T00:03:56.790Z,1.50
2023-01-26T00:06:24.111Z,1.40
2023-01-26T00:08:56.493Z,1.40
2023-01-26T00:11:30.376Z,1.40
2023-01-26T00:13:59.608Z,1.40
2023-01-26T00:16:28.096Z,1.30
2023-01-26T00:18:55.103Z,1.20
2023-01-26T00:21:23.778Z,1.10
2023-01-26T00:23:51.956Z,1.20
2023-01-26T00:26:21.724Z,1.10
2023-01-26T00:31:19.594Z,1.10
2023-01-26T00:33:46.553Z,1.20
2023-01-26T00:36:14.956Z,1.20
2023-01-26T00:38:42.447Z,1.20
2023-01-26T00:41:30.716Z,1.20
2023-01-26T00:43:57.947Z,1.20
2023-01-26T00:46:24.906Z,1.20
2023-01-26T00:48:51.861Z,1.20
2023-01-26T00:51:18.736Z,1.10
2023-01-26T01:01:10.093Z,0.70
2023-01-26T01:08:31.506Z,1.20
2023-01-26T01:11:10.056Z,1.00
2023-01-26T01:16:13.380Z,1.10
2023-01-26T01:18:40.430Z,0.90
2023-01-26T01:21:12.911Z,1.00
2023-01-26T01:26:07.569Z,1.10
2023-01-26T01:28:35.744Z,1.10
2023-01-26T01:31:07.344Z,1.00
2023-01-26T01:33:34.352Z,1.00
2023-01-26T01:36:04.389Z,1.10
2023-01-26T01:38:31.369Z,0.90
2023-01-26T01:43:26.744Z,0.90
2023-01-26T01:48:39.602Z,1.00
2023-01-26T01:51:14.418Z,0.80
2023-01-26T01:53:44.928Z,0.80
2023-01-26T01:56:19.494Z,0.90
2023-01-26T01:58:47.040Z,0.90
2023-01-26T02:01:14.213Z,0.80
2023-01-26T02:03:43.790Z,0.80
2023-01-26T02:06:17.314Z,0.70
2023-01-26T02:08:48.173Z,0.90
2023-01-26T02:11:32.574Z,0.90
2023-01-26T02:14:02.784Z,0.80
2023-01-26T02:21:24.760Z,0.60
2023-01-26T02:24:03.893Z,0.60
2023-01-26T02:26:33.964Z,0.60
2023-01-26T02:29:03.039Z,0.50
2023-01-26T02:31:30.698Z,0.70
2023-01-26T02:33:57.810Z,0.70
2023-01-26T02:36:28.061Z,0.60
2023-01-26T02:39:21.223Z,0.60
2023-01-26T02:42:08.085Z,0.50
2023-01-26T02:47:10.300Z,0.60
2023-01-26T02:52:32.958Z,0.90
2023-01-26T02:55:18.701Z,0.80
2023-01-26T02:57:46.297Z,0.60
2023-01-26T03:00:16.691Z,0.70
2023-01-26T03:02:44.614Z,0.60
2023-01-26T03:07:38.729Z,0.70
2023-01-26T03:10:06.752Z,0.80
2023-01-26T03:20:33.310Z,0.70
2023-01-26T03:26:04.844Z,0.70
2023-01-26T03:28:31.645Z,0.70
2023-01-26T03:30:58.637Z,0.70
2023-01-26T03:33:25.540Z,0.60
2023-01-26T03:35:54.514Z,0.80
2023-01-26T03:38:21.328Z,0.80
2023-01-26T03:49:24.332Z,0.60
2023-01-26T03:52:09.588Z,0.50
2023-01-26T04:08:07.371Z,0.60
2023-01-26T04:13:20.088Z,0.70
2023-01-26T04:16:07.537Z,0.50
2023-01-26T04:21:35.947Z,0.70
2023-01-26T04:24:09.961Z,0.50
2023-01-26T04:26:37.473Z,0.50
2023-01-26T04:29:06.490Z,0.50
2023-01-26T04:31:33.474Z,0.50
2023-01-26T04:34:02.037Z,0.60
2023-01-26T04:36:29.032Z,0.50
2023-01-26T04:38:56.346Z,1.90
2023-01-26T04:43:51.017Z,0.50
2023-01-26T04:46:17.910Z,0.40
2023-01-26T04:48:44.723Z,0.30
2023-01-26T04:51:20.513Z,0.30
2023-01-26T04:53:48.341Z,0.40
2023-01-26T04:56:28.120Z,0.40
2023-01-26T04:58:58.019Z,0.50
2023-01-26T05:01:24.972Z,0.40
2023-01-26T05:06:19.711Z,0.50
2023-01-26T05:11:14.122Z,0.30
2023-01-26T05:13:41.409Z,0.30
2023-01-26T05:16:08.684Z,0.30
2023-01-26T05:23:30.118Z,0.10
2023-01-26T05:25:57.232Z,-0.10
2023-01-26T05:33:22.594Z,0.10
2023-01-26T05:35:49.907Z,0.10
2023-01-26T05:40:44.365Z,0.00
2023-01-26T05:43:12.870Z,-0.20
2023-01-26T05:45:40.838Z,0.10
2023-01-26T05:48:07.795Z,0.10
2023-01-26T05:50:34.639Z,0.10
2023-01-26T05:55:30.099Z,-0.10
2023-01-26T06:00:24.363Z,-0.10
2023-01-26T06:02:51.230Z,-0.30
2023-01-26T06:07:45.441Z,0.00
2023-01-26T06:15:11.140Z,-0.10
2023-01-26T06:20:06.967Z,-0.10
2023-01-26T06:22:33.777Z,-0.10
2023-01-26T06:25:00.628Z,-0.20
2023-01-26T06:27:27.571Z,-0.20
2023-01-26T06:32:21.782Z,-0.20
2023-01-26T06:39:43.434Z,-0.50
2023-01-26T06:47:07.007Z,-0.30
2023-01-26T06:49:33.896Z,-0.20
2023-01-26T06:52:26.532Z,-0.30
2023-01-26T06:54:53.946Z,-0.30
2023-01-26T06:57:20.829Z,-0.30
2023-01-26T06:59:47.731Z,-0.10
2023-01-26T07:02:22.150Z,0.00
2023-01-26T07:04:50.681Z,-0.20
2023-01-26T07:12:12.146Z,-0.10
2023-01-26T07:17:06.286Z,-0.10
2023-01-26T07:19:34.052Z,0.00
2023-01-26T07:22:01.904Z,0.00
2023-01-26T07:24:28.985Z,0.00
2023-01-26T07:26:56.903Z,0.00
2023-01-26T07:31:51.312Z,-0.20
2023-01-26T07:34:18.315Z,-0.10
2023-01-26T07:39:12.575Z,-0.10
2023-01-26T07:44:10.283Z,-0.20
2023-01-26T07:46:37.545Z,-0.10
2023-01-26T07:49:04.759Z,0.00
2023-01-26T07:51:31.816Z,0.00
2023-01-26T07:53:59.126Z,0.10
2023-01-26T08:01:22.103Z,-0.10
2023-01-26T08:03:51.499Z,0.00
2023-01-26T08:08:51.133Z,0.20
2023-01-26T08:11:19.832Z,0.10
2023-01-26T08:13:46.706Z,0.10
2023-01-26T08:18:45.897Z,0.10
2023-01-26T08:21:14.562Z,0.10
2023-01-26T08:23:41.353Z,0.10
2023-01-26T08:26:11.207Z,0.00
2023-01-26T08:31:08.207Z,0.00
2023-01-26T08:33:35.536Z,0.00
2023-01-26T08:36:07.406Z,0.10
2023-01-26T08:38:35.326Z,0.20
2023-01-26T08:41:03.188Z,0.20
2023-01-26T08:50:56.224Z,0.00
2023-01-26T08:53:24.076Z,0.10
2023-01-26T08:55:51.767Z,0.20
2023-01-26T08:58:20.502Z,0.40
2023-01-26T09:05:42.326Z,0.40
2023-01-26T09:08:09.613Z,0.40
2023-01-26T09:10:38.256Z,0.30
2023-01-26T09:13:05.670Z,0.30
2023-01-26T09:15:32.947Z,0.40
2023-01-26T09:18:01.034Z,0.20
2023-01-26T09:20:28.264Z,0.40
2023-01-26T09:22:55.186Z,0.40
2023-01-26T09:25:22.049Z,0.30
2023-01-26T09:27:48.937Z,0.30
2023-01-26T09:30:16.411Z,0.50
2023-01-26T09:32:43.329Z,0.40
2023-01-26T09:37:43.847Z,0.30
2023-01-26T09:40:20.089Z,0.30
2023-01-26T09:43:05.150Z,0.20
2023-01-26T09:45:46.771Z,0.40
2023-01-26T09:48:25.819Z,0.40
2023-01-26T09:51:02.513Z,0.40
2023-01-26T09:53:47.771Z,0.50
2023-01-26T09:56:20.980Z,0.50
2023-01-26T09:58:56.250Z,0.50
2023-01-26T10:01:34.688Z,0.40
2023-01-26T10:04:13.376Z,0.60
2023-01-26T10:09:24.593Z,0.60
2023-01-26T10:12:03.666Z,0.60
2023-01-26T10:17:00.198Z,0.60
2023-01-26T10:19:48.464Z,0.70
2023-01-26T10:22:24.992Z,0.60
2023-01-26T10:24:53.168Z,0.60
2023-01-26T10:27:20.181Z,0.70
2023-01-26T10:29:47.085Z,0.80
2023-01-26T10:32:17.142Z,0.80
2023-01-26T10:34:46.424Z,0.90
2023-01-26T10:37:29.854Z,0.90
2023-01-26T10:40:01.536Z,0.80
2023-01-26T10:42:32.286Z,0.80
2023-01-26T10:45:02.169Z,0.80
2023-01-26T10:50:26.010Z,1.00
2023-01-26T10:53:03.461Z,1.10
2023-01-26T10:55:33.035Z,1.00
2023-01-26T10:58:01.023Z,1.00
2023-01-26T11:00:33.630Z,1.00
2023-01-26T11:05:27.780Z,0.80
2023-01-26T11:08:02.226Z,1.00
2023-01-26T11:10:51.037Z,0.90
2023-01-26T11:13:20.400Z,0.90
2023-01-26T11:16:03.162Z,0.80
2023-01-26T11:18:47.180Z,0.70
2023-01-26T11:21:39.202Z,0.80
2023-01-26T11:24:32.831Z,0.90
2023-01-26T11:27:19.858Z,1.00
2023-01-26T11:30:23.375Z,1.10
2023-01-26T11:32:58.899Z,0.90
2023-01-26T11:35:41.082Z,1.00
2023-01-26T11:38:36.990Z,0.90
2023-01-26T11:41:40.873Z,1.10
2023-01-26T11:44:55.229Z,1.30
2023-01-26T11:47:33.133Z,1.20
2023-01-26T11:50:24.087Z,1.30
2023-01-26T11:53:09.251Z,1.20
2023-01-26T11:55:54.498Z,1.20
2023-01-26T12:01:04.964Z,1.30
2023-01-26T12:03:34.711Z,1.40
2023-01-26T12:06:07.161Z,1.10
2023-01-26T12:08:45.623Z,1.30
2023-01-26T12:11:24.045Z,1.20
2023-01-26T12:14:02.998Z,1.40
2023-01-26T12:16:40.221Z,1.40
2023-01-26T12:21:43.423Z,1.20
2023-01-26T12:24:43.492Z,1.30
2023-01-26T12:27:08.500Z,1.30
2023-01-26T12:30:10.391Z,1.80
2023-01-26T12:32:37.266Z,1.40
2023-01-26T12:35:04.485Z,1.40
2023-01-26T12:38:16.040Z,1.30
2023-01-26T12:41:27.094Z,1.50
2023-01-26T12:44:29.005Z,1.50
2023-01-26T12:47:22.998Z,1.20
2023-01-26T12:50:02.124Z,1.10
2023-01-26T12:52:43.512Z,1.10
2023-01-26T12:55:13.490Z,1.10
2023-01-26T12:57:54.773Z,1.10
2023-01-26T13:00:30.031Z,1.10
2023-01-26T13:03:05.783Z,1.20
2023-01-26T13:05:35.662Z,1.10
2023-01-26T13:08:30.431Z,1.00
2023-01-26T13:10:59.428Z,1.00
2023-01-26T13:13:28.252Z,1.00
2023-01-26T13:16:16.591Z,1.00
2023-01-26T13:18:50.185Z,0.90
2023-01-26T13:21:56.543Z,0.90
2023-01-26T13:24:42.381Z,0.60
2023-01-26T13:27:33.942Z,0.80
2023-01-26T13:30:01.544Z,0.90
2023-01-26T13:35:03.507Z,0.80
2023-01-26T13:37:46.587Z,0.80
2023-01-26T13:40:32.551Z,1.00
2023-01-26T13:43:25.842Z,1.00
2023-01-26T13:46:18.254Z,1.00
2023-01-26T13:48:55.899Z,0.80
2023-01-26T13:51:25.002Z,0.60
2023-01-26T13:54:14.354Z,0.90
2023-01-26T13:56:43.446Z,0.80
2023-01-26T14:01:52.969Z,0.80
2023-01-26T14:04:23.887Z,0.70
2023-01-26T14:07:15.632Z,0.70
2023-01-26T14:09:51.205Z,0.70
2023-01-26T14:12:43.575Z,0.70
2023-01-26T14:15:29.333Z,0.70
2023-01-26T14:17:57.401Z,0.80
2023-01-26T14:20:34.546Z,0.80
2023-01-26T14:23:14.229Z,0.70
2023-01-26T14:25:46.942Z,0.70
2023-01-26T14:28:16.726Z,0.70
2023-01-26T14:30:43.945Z,0.70
2023-01-26T14:35:38.020Z,0.70
2023-01-26T14:38:11.847Z,0.60
2023-01-26T14:40:54.232Z,0.70
2023-01-26T14:43:21.726Z,0.70
2023-01-26T14:46:09.395Z,0.70
2023-01-26T14:48:46.854Z,0.70
2023-01-26T14:51:20.614Z,0.70
2023-01-26T14:53:56.648Z,0.70
2023-01-26T14:56:39.459Z,0.60
2023-01-26T14:59:09.639Z,0.70
2023-01-26T15:04:25.118Z,0.50
2023-01-26T15:09:27.361Z,0.70
2023-01-26T15:12:15.953Z,0.50
2023-01-26T15:14:45.513Z,0.50
2023-01-26T15:17:31.771Z,0.60
2023-01-26T15:22:26.846Z,0.40
2023-01-26T15:25:19.220Z,0.50
2023-01-26T15:27:58.933Z,0.40
2023-01-26T15:30:34.747Z,0.30
2023-01-26T15:33:02.463Z,0.30
2023-01-26T15:35:32.139Z,0.30
2023-01-26T15:38:06.067Z,0.30
2023-01-26T15:43:18.079Z,0.40
2023-01-26T15:45:58.565Z,0.40
2023-01-26T15:53:22.261Z,0.60
2023-01-26T15:55:53.270Z,0.40
2023-01-26T15:58:20.184Z,0.40
2023-01-26T16:00:47.461Z,0.40
2023-01-26T16:03:19.518Z,0.30
2023-01-26T16:08:18.126Z,0.30
2023-01-26T16:10:45.725Z,0.30
2023-01-26T16:13:20.490Z,0.30
2023-01-26T16:15:52.524Z,0.30
2023-01-26T16:18:20.424Z,0.20
2023-01-26T16:20:49.332Z,0.20
2023-01-26T16:23:26.149Z,0.20
2023-01-26T16:28:21.040Z,0.10
2023-01-26T16:30:50.298Z,0.20
2023-01-26T16:33:24.596Z,0.20
2023-01-26T16:38:19.075Z,0.30
2023-01-26T16:40:48.902Z,0.20
2023-01-26T16:43:24.216Z,0.30
2023-01-26T16:45:52.556Z,0.20
2023-01-26T16:48:20.181Z,0.10
2023-01-26T16:50:50.268Z,0.20
2023-01-26T16:53:27.093Z,0.20
2023-01-26T16:58:22.510Z,0.30
2023-01-26T17:00:49.599Z,0.30
2023-01-26T17:08:11.452Z,0.40
2023-01-26T17:10:45.877Z,0.40
2023-01-26T17:13:18.788Z,0.40
2023-01-26T17:20:41.991Z,0.30
2023-01-26T17:23:09.379Z,0.40
2023-01-26T17:32:58.117Z,0.40
2023-01-26T17:40:19.616Z,0.40
2023-01-26T17:42:46.563Z,0.40
2023-01-26T17:47:41.089Z,0.40
2023-01-26T17:50:08.555Z,0.30
2023-01-26T17:52:36.587Z,0.50
2023-01-26T17:57:33.887Z,0.40
2023-01-26T18:00:00.947Z,0.40
2023-01-26T18:02:27.917Z,0.40
2023-01-26T18:04:54.803Z,0.40
2023-01-26T18:07:22.494Z,0.40
2023-01-26T18:12:16.575Z,0.30
2023-01-26T18:14:43.437Z,0.40
2023-01-26T18:19:37.502Z,0.40
2023-01-26T18:22:04.812Z,0.50
2023-01-26T18:24:31.734Z,0.40
2023-01-26T18:26:58.606Z,0.50
2023-01-26T18:29:25.528Z,0.30
2023-01-26T18:34:19.718Z,0.50
2023-01-26T18:39:14.731Z,0.40
2023-01-26T18:44:10.463Z,0.40
2023-01-26T18:49:05.024Z,0.40
2023-01-26T18:51:34.679Z,0.40
2023-01-26T18:54:04.018Z,0.40
2023-01-26T18:58:58.359Z,0.60
2023-01-26T19:01:26.217Z,0.40
2023-01-26T19:03:58.723Z,0.30
2023-01-26T19:06:28.505Z,0.40
2023-01-26T19:09:00.819Z,0.40
2023-01-26T19:11:30.831Z,0.40
2023-01-26T19:13:58.403Z,0.20
2023-01-26T19:18:54.259Z,0.30
2023-01-26T19:21:24.559Z,0.40
2023-01-26T19:23:53.645Z,0.50
2023-01-26T19:26:23.164Z,0.50
2023-01-26T19:31:20.020Z,0.50
2023-01-26T19:33:58.265Z,0.50
2023-01-26T19:36:26.864Z,0.40
2023-01-26T19:38:53.852Z,0.50
2023-01-26T19:41:21.560Z,0.30
2023-01-26T19:46:17.023Z,0.40
2023-01-26T19:51:16.658Z,0.20
2023-01-26T19:53:46.233Z,0.30
2023-01-26T19:56:19.214Z,0.40
2023-01-26T19:58:49.480Z,0.30
2023-01-26T20:03:43.653Z,0.30
2023-01-26T20:06:15.720Z,0.30
2023-01-26T20:08:42.879Z,0.20
2023-01-26T20:11:10.738Z,0.10
2023-01-26T20:13:38.058Z,0.10
2023-01-26T20:16:07.002Z,0.20
2023-01-26T20:18:35.233Z,0.20
2023-01-26T20:21:02.902Z,0.30
2023-01-26T20:26:11.044Z,0.20
2023-01-26T20:28:40.226Z,0.20
2023-01-26T20:31:17.334Z,0.10
2023-01-26T20:33:49.241Z,0.20
2023-01-26T20:36:19.911Z,0.10
2023-01-26T20:38:48.359Z,0.10
2023-01-26T20:41:18.921Z,0.20
2023-01-26T20:46:39.239Z,0.20
2023-01-26T20:49:08.772Z,0.30
2023-01-26T20:51:38.579Z,0.20
2023-01-26T20:54:06.890Z,0.20
2023-01-26T20:56:35.585Z,0.20
2023-01-26T20:59:04.378Z,0.40
2023-01-26T21:01:33.786Z,0.40
2023-01-26T21:04:02.290Z,0.50
2023-01-26T21:06:29.662Z,0.30
2023-01-26T21:08:58.182Z,0.30
2023-01-26T21:11:27.686Z,0.40
2023-01-26T21:14:01.846Z,0.20
2023-01-26T21:16:30.481Z,-0.10
2023-01-26T21:18:57.437Z,0.00
2023-01-26T21:21:24.562Z,0.00
2023-01-26T21:23:51.704Z,0.10
2023-01-26T21:26:22.367Z,0.20
2023-01-26T21:28:54.671Z,0.20
2023-01-26T21:31:23.724Z,0.10
2023-01-26T21:33:51.940Z,0.10
2023-01-26T21:36:22.031Z,0.00
2023-01-26T21:38:52.126Z,0.00
2023-01-26T21:41:43.010Z,0.00
2023-01-26T21:44:21.478Z,-0.10
2023-01-26T21:46:51.874Z,-0.10
2023-01-26T21:49:18.953Z,-0.10
2023-01-26T21:52:04.579Z,-0.10
2023-01-26T21:54:31.901Z,0.00
2023-01-26T21:56:59.692Z,-0.10
2023-01-26T22:01:56.543Z,0.00
2023-01-26T22:04:29.108Z,-0.10
2023-01-26T22:06:56.986Z,-0.10
2023-01-26T22:09:24.577Z,0.00
2023-01-26T22:11:52.481Z,-0.10
2023-01-26T22:14:24.983Z,-0.10
2023-01-26T22:16:52.007Z,-0.10
2023-01-26T22:19:18.950Z,-0.10
2023-01-26T22:24:14.728Z,0.10
2023-01-26T22:29:11.782Z,0.10
2023-01-26T22:31:38.684Z,0.00
2023-01-26T22:34:05.674Z,-0.10
2023-01-26T22:41:30.158Z,0.00
2023-01-26T22:43:59.098Z,0.00
2023-01-26T22:46:27.655Z,0.00
2023-01-26T22:48:57.351Z,0.00
2023-01-26T22:51:26.876Z,0.10
2023-01-26T22:53:55.098Z,0.00
2023-01-26T22:56:22.466Z,0.00
2023-01-26T22:58:58.465Z,0.00
2023-01-26T23:01:27.820Z,0.00
2023-01-26T23:03:56.334Z,0.00
2023-01-26T23:06:23.877Z,0.00
2023-01-26T23:11:27.124Z,0.00
2023-01-26T23:13:55.927Z,0.00
2023-01-26T23:16:23.917Z,0.00
2023-01-26T23:18:52.826Z,0.10
2023-01-26T23:21:20.279Z,0.10
2023-01-26T23:23:47.160Z,0.10
2023-01-26T23:28:43.212Z,0.00
2023-01-26T23:31:11.903Z,0.00
2023-01-26T23:33:39.272Z,0.00
2023-01-26T23:36:07.692Z,0.00
2023-01-26T23:38:34.970Z,0.00
2023-01-26T23:43:30.053Z,0.10
2023-01-26T23:45:57.250Z,0.10
2023-01-26T23:48:24.910Z,0.00
2023-01-26T23:51:04.291Z,0.00
2023-01-26T23:56:00.807Z,0.00
2023-01-26T23:58:27.687Z,0.00
